| ตารางข้อมูล | TH20402 | TH4529A | TH4529D | TH814 | ค้นข้อมูล1 | ค้นข้อมูล2 | ค่าสูงสุด-ต่ำสุด |  

Select Sensor -->| 20402 | 4529A | 4529D | 814 | 824 | 834 | 844 | หน้าจอย่อ | 4529 |
Data of room  4529A

IDRoomDate  Temp  Humidity
 146979  4529A  2022-08-18 07:57:08  26.2  63.2 
 146975  4529A  2022-08-18 07:37:05  26.2  55.8 
 146971  4529A  2022-08-18 07:17:03  26.2  63.9 
 146967  4529A  2022-08-18 06:57:01  27.3  67.4 
 146963  4529A  2022-08-18 06:36:58  26.4  58.5 
 146959  4529A  2022-08-18 06:16:56  26.7  62.6 
 146955  4529A  2022-08-18 05:56:53  27.1  65.1 
 146951  4529A  2022-08-18 05:36:51  26.9  59.2 
 146947  4529A  2022-08-18 05:16:49  26.4  59.2 
 146943  4529A  2022-08-18 04:56:46  26.9  61.5 
 146939  4529A  2022-08-18 04:36:44  27.1  62.6 
 146935  4529A  2022-08-18 04:16:42  27.3  62.4 
 146931  4529A  2022-08-18 03:56:39  26.5  56.3 
 146927  4529A  2022-08-18 03:36:37  26.0  55.6 
 146923  4529A  2022-08-18 03:16:34  27.0  57.2 
 146919  4529A  2022-08-18 02:56:32  27.5  65.7 
 146915  4529A  2022-08-18 02:36:30  27.5  65.1 
 146911  4529A  2022-08-18 02:16:27  27.4  63.8 
 146907  4529A  2022-08-18 01:56:25  27.3  63.4 
 146903  4529A  2022-08-18 01:36:22  27.4  62.9 
 146899  4529A  2022-08-18 01:16:20  27.3  62.1 
 146895  4529A  2022-08-18 00:56:18  27.2  60.7 
 146891  4529A  2022-08-18 00:36:15  27.1  60.5 
 146887  4529A  2022-08-18 00:16:13  27.0  59.3 
 146883  4529A  2022-08-17 23:56:11  26.9  55.6 
 146879  4529A  2022-08-17 23:36:08  27.2  55.1 
 146875  4529A  2022-08-17 23:16:06  27.1  58.5 
 146871  4529A  2022-08-17 22:56:03  27.0  54.1 
 146867  4529A  2022-08-17 22:36:01  27.7  56.6 
 146863  4529A  2022-08-17 22:15:59  27.6  58.3 
 146859  4529A  2022-08-17 21:55:56  27.2  57.4 
 146855  4529A  2022-08-17 21:35:54  26.9  55.9 
 146851  4529A  2022-08-17 21:15:51  26.6  53.9 
 146847  4529A  2022-08-17 20:55:49  27.2  57.6 
 146843  4529A  2022-08-17 20:35:47  27.2  57.1 
 146839  4529A  2022-08-17 20:15:44  26.3  48.9 
 146835  4529A  2022-08-17 19:55:42  26.2  48.7 
 146831  4529A  2022-08-17 19:35:40  26.2  49.7 
 146827  4529A  2022-08-17 19:15:37  26.1  46.8 
 146823  4529A  2022-08-17 18:55:35  26.1  45.5 
 146819  4529A  2022-08-17 18:35:32  26.1  45.6 
 146815  4529A  2022-08-17 18:15:30  26.3  45.7 
 146811  4529A  2022-08-17 17:55:28  26.5  46.3 
 146807  4529A  2022-08-17 17:35:25  26.8  47.5 
 146803  4529A  2022-08-17 17:15:23  27.0  48.4 
 146799  4529A  2022-08-17 16:55:21  27.2  49.4 
 146795  4529A  2022-08-17 16:35:18  27.4  50.5 
 146791  4529A  2022-08-17 16:15:16  27.2  50.6 
 146787  4529A  2022-08-17 15:55:13  27.5  51.6 
 146783  4529A  2022-08-17 15:35:11  30.9  60.0 
 146779  4529A  2022-08-17 15:15:09  30.7  60.4 
 146775  4529A  2022-08-17 14:55:06  30.5  60.4 
 146771  4529A  2022-08-17 14:35:04  30.3  60.2 
 146767  4529A  2022-08-17 14:15:02  30.1  60.0 
 146763  4529A  2022-08-17 13:54:59  29.9  59.8 
 146759  4529A  2022-08-17 13:34:57  29.5  60.0 
 146755  4529A  2022-08-17 13:14:54  28.6  64.9 
 146751  4529A  2022-08-17 12:54:52  27.8  59.9 
 146747  4529A  2022-08-17 12:34:50  26.5  52.6 
 146743  4529A  2022-08-17 12:14:47  26.6  54.7 
 146739  4529A  2022-08-17 11:54:45  26.9  57.9 
 146735  4529A  2022-08-17 11:34:43  27.5  62.0 
 146731  4529A  2022-08-17 11:14:40  29.0  63.5 
 146727  4529A  2022-08-17 10:54:38  28.8  63.8 
 146723  4529A  2022-08-17 10:34:36  28.7  64.3 
 146719  4529A  2022-08-17 10:14:33  28.5  64.5 
 146715  4529A  2022-08-17 09:54:31  28.4  64.9 
 146711  4529A  2022-08-17 09:34:28  28.3  65.5 
 146707  4529A  2022-08-17 09:14:26  28.1  65.3 
 146703  4529A  2022-08-17 08:54:24  28.0  65.9 
 146699  4529A  2022-08-17 08:34:21  28.0  67.0 
 146695  4529A  2022-08-17 08:14:19  27.8  67.3 

Data every 20 minute.


Data of room  4529A


Data every 20 minute.

  Show Graph